createdAt,value
2023-05-25T00:01:24.474Z,13.27
2023-05-25T00:03:53.049Z,13.25
2023-05-25T00:06:20.504Z,13.21
2023-05-25T00:08:48.649Z,13.16
2023-05-25T00:11:19.462Z,13.12
2023-05-25T00:13:46.760Z,13.11
2023-05-25T00:16:14.033Z,13.11
2023-05-25T00:18:41.285Z,13.09
2023-05-25T00:21:08.596Z,13.07
2023-05-25T00:23:35.912Z,13.06
2023-05-25T00:26:03.451Z,13.04
2023-05-25T00:28:30.872Z,13.00
2023-05-25T00:30:58.913Z,12.97
2023-05-25T00:33:26.255Z,12.96
2023-05-25T00:35:54.098Z,12.94
2023-05-25T00:38:21.854Z,12.91
2023-05-25T00:40:49.336Z,12.89
2023-05-25T00:43:16.733Z,12.85
2023-05-25T00:45:44.174Z,12.83
2023-05-25T00:48:11.551Z,12.79
2023-05-25T00:50:42.615Z,12.75
2023-05-25T00:53:10.607Z,12.72
2023-05-25T00:56:02.456Z,12.68
2023-05-25T00:58:31.424Z,12.65
2023-05-25T01:00:58.784Z,12.63
2023-05-25T01:03:28.427Z,12.61
2023-05-25T01:05:56.109Z,12.58
2023-05-25T01:08:23.473Z,12.56
2023-05-25T01:10:52.823Z,12.54
2023-05-25T01:13:21.045Z,12.51
2023-05-25T01:15:48.452Z,12.50
2023-05-25T01:18:15.924Z,12.48
2023-05-25T01:21:13.290Z,12.47
2023-05-25T01:23:44.034Z,12.45
2023-05-25T01:26:13.605Z,12.43
2023-05-25T01:28:42.975Z,12.42
2023-05-25T01:31:10.568Z,12.41
2023-05-25T01:33:37.871Z,12.40
2023-05-25T01:36:05.421Z,12.38
2023-05-25T01:38:32.706Z,12.36
2023-05-25T01:42:30.552Z,12.36
2023-05-25T01:44:58.949Z,12.31
2023-05-25T01:47:48.293Z,12.25
2023-05-25T01:50:20.603Z,12.22
2023-05-25T01:52:58.332Z,12.20
2023-05-25T01:55:26.975Z,12.21
2023-05-25T01:57:58.093Z,12.20
2023-05-25T02:00:26.503Z,12.19
2023-05-25T02:02:53.934Z,12.17
2023-05-25T02:05:21.495Z,12.15
2023-05-25T02:07:48.794Z,12.11
2023-05-25T02:10:16.125Z,12.09
2023-05-25T02:12:43.370Z,12.08
2023-05-25T02:15:11.570Z,12.08
2023-05-25T02:17:38.812Z,12.07
2023-05-25T02:20:07.016Z,12.05
2023-05-25T02:22:34.426Z,12.04
2023-05-25T02:25:01.660Z,12.03
2023-05-25T02:27:30.144Z,12.01
2023-05-25T02:29:57.373Z,12.02
2023-05-25T02:32:25.844Z,12.02
2023-05-25T02:34:53.110Z,12.04
2023-05-25T02:37:21.164Z,12.04
2023-05-25T02:39:48.385Z,12.04
2023-05-25T02:42:15.665Z,12.08
2023-05-25T02:44:48.212Z,12.21
2023-05-25T02:47:16.130Z,12.48
2023-05-25T02:49:44.235Z,12.78
2023-05-25T02:52:11.507Z,13.07
2023-05-25T02:54:39.268Z,13.34
2023-05-25T02:57:08.408Z,13.50
2023-05-25T02:59:35.755Z,13.63
2023-05-25T03:02:03.706Z,13.94
2023-05-25T03:04:34.398Z,14.41
2023-05-25T03:07:02.220Z,14.93
2023-05-25T03:09:29.887Z,15.40
2023-05-25T03:11:57.685Z,15.83
2023-05-25T03:14:25.137Z,16.26
2023-05-25T03:16:59.876Z,16.69
2023-05-25T03:19:27.408Z,17.07
2023-05-25T03:21:54.753Z,17.49
2023-05-25T03:24:22.134Z,17.94
2023-05-25T03:26:49.399Z,18.34
2023-05-25T03:29:16.964Z,18.70
2023-05-25T03:31:44.361Z,18.98
2023-05-25T03:34:12.177Z,19.08
2023-05-25T03:36:39.673Z,19.03
2023-05-25T03:39:07.299Z,18.92
2023-05-25T03:41:34.575Z,18.80
2023-05-25T03:44:01.961Z,18.68
2023-05-25T03:46:29.481Z,18.56
2023-05-25T03:48:57.609Z,18.41
2023-05-25T03:51:24.929Z,18.27
2023-05-25T03:53:52.307Z,18.15
2023-05-25T03:56:19.598Z,18.01
2023-05-25T03:58:46.977Z,17.91
2023-05-25T04:01:14.777Z,17.85
2023-05-25T04:03:42.153Z,17.84
2023-05-25T04:06:09.840Z,17.89
2023-05-25T04:08:37.114Z,17.94
2023-05-25T04:11:05.566Z,17.97
2023-05-25T04:13:35.913Z,18.00
2023-05-25T04:16:03.583Z,18.09
2023-05-25T04:18:33.871Z,18.19
2023-05-25T04:21:01.363Z,18.30
2023-05-25T04:23:28.924Z,18.48
2023-05-25T04:25:56.680Z,18.81
2023-05-25T04:28:24.069Z,19.17
2023-05-25T04:30:57.215Z,19.46
2023-05-25T04:33:48.174Z,19.66
2023-05-25T04:36:38.682Z,20.12
2023-05-25T04:39:07.588Z,20.84
2023-05-25T04:41:39.347Z,21.63
2023-05-25T04:44:10.673Z,22.38
2023-05-25T04:46:48.517Z,23.15
2023-05-25T04:49:21.493Z,23.89
2023-05-25T04:51:48.961Z,24.59
2023-05-25T04:54:16.598Z,25.23
2023-05-25T04:56:44.135Z,25.80
2023-05-25T04:59:11.597Z,26.33
2023-05-25T05:01:42.159Z,26.89
2023-05-25T05:04:12.173Z,27.41
2023-05-25T05:06:39.621Z,27.95
2023-05-25T05:09:07.892Z,28.36
2023-05-25T05:11:35.127Z,28.59
2023-05-25T05:14:04.652Z,28.89
2023-05-25T05:16:35.293Z,29.19
2023-05-25T05:19:02.958Z,29.43
2023-05-25T05:21:30.480Z,29.64
2023-05-25T05:23:57.856Z,29.87
2023-05-25T05:26:25.221Z,30.02
2023-05-25T05:28:53.059Z,30.10
2023-05-25T05:31:21.500Z,30.22
2023-05-25T05:33:48.816Z,30.39
2023-05-25T05:36:16.980Z,30.63
2023-05-25T05:38:46.958Z,30.83
2023-05-25T05:41:14.558Z,31.03
2023-05-25T05:43:43.876Z,31.23
2023-05-25T05:46:11.218Z,31.22
2023-05-25T05:48:40.357Z,30.99
2023-05-25T05:51:07.791Z,30.63
2023-05-25T05:53:37.856Z,30.50
2023-05-25T05:56:05.931Z,30.47
2023-05-25T05:58:33.869Z,30.39
2023-05-25T06:01:02.023Z,30.03
2023-05-25T06:03:29.356Z,29.82
2023-05-25T06:05:56.624Z,29.70
2023-05-25T06:08:24.235Z,29.66
2023-05-25T06:10:51.729Z,29.72
2023-05-25T06:13:19.006Z,29.83
2023-05-25T06:15:46.593Z,29.87
2023-05-25T06:18:17.736Z,29.93
2023-05-25T06:20:45.102Z,30.01
2023-05-25T06:23:14.098Z,30.05
2023-05-25T06:25:41.691Z,30.22
2023-05-25T06:28:09.166Z,30.35
2023-05-25T06:30:36.423Z,30.45
2023-05-25T06:33:04.086Z,30.53
2023-05-25T06:35:31.446Z,30.70
2023-05-25T06:37:58.709Z,30.88
2023-05-25T06:40:26.073Z,31.08
2023-05-25T06:42:53.392Z,31.05
2023-05-25T06:45:38.004Z,30.83
2023-05-25T06:48:05.724Z,30.47
2023-05-25T06:50:33.261Z,30.36
2023-05-25T06:53:00.737Z,30.12
2023-05-25T06:55:28.102Z,30.06
2023-05-25T06:57:56.174Z,29.98
2023-05-25T07:00:23.528Z,29.87
2023-05-25T07:02:50.989Z,29.91
2023-05-25T07:05:18.385Z,30.09
2023-05-25T07:07:45.758Z,30.33
2023-05-25T07:10:13.036Z,30.60
2023-05-25T07:12:40.312Z,30.63
2023-05-25T07:15:08.237Z,30.30
2023-05-25T07:17:36.723Z,30.14
2023-05-25T07:20:05.879Z,30.20
2023-05-25T07:22:33.180Z,30.15
2023-05-25T07:25:00.458Z,30.01
2023-05-25T07:27:27.912Z,29.73
2023-05-25T07:29:55.165Z,29.37
2023-05-25T07:32:22.484Z,29.21
2023-05-25T07:34:50.185Z,29.33
2023-05-25T07:37:17.427Z,29.61
2023-05-25T07:39:44.736Z,29.82
2023-05-25T07:42:12.022Z,29.88
2023-05-25T07:44:39.462Z,30.03
2023-05-25T07:47:07.303Z,30.12
2023-05-25T07:49:34.982Z,30.19
2023-05-25T07:52:04.563Z,30.31
2023-05-25T07:54:32.392Z,30.41
2023-05-25T07:56:59.675Z,30.38
2023-05-25T07:59:26.911Z,30.37
2023-05-25T08:01:54.262Z,30.38
2023-05-25T08:04:21.587Z,30.37
2023-05-25T08:06:48.894Z,30.34
2023-05-25T08:09:16.145Z,30.41
2023-05-25T08:11:45.520Z,30.45
2023-05-25T08:14:13.056Z,30.50
2023-05-25T08:16:40.661Z,30.51
2023-05-25T08:19:07.878Z,30.54
2023-05-25T08:21:35.256Z,30.53
2023-05-25T08:24:04.253Z,30.45
2023-05-25T08:26:45.345Z,30.31
2023-05-25T08:29:19.405Z,29.96
2023-05-25T08:31:49.647Z,30.03
2023-05-25T08:34:18.216Z,30.18
2023-05-25T08:36:46.122Z,30.13
2023-05-25T08:39:13.518Z,30.23
2023-05-25T08:41:44.481Z,30.38
2023-05-25T08:44:11.769Z,30.45
2023-05-25T08:46:39.036Z,30.35
2023-05-25T08:49:13.657Z,30.14
2023-05-25T08:51:54.199Z,30.15
2023-05-25T08:54:39.547Z,30.27
2023-05-25T08:57:20.883Z,30.41
2023-05-25T08:59:52.390Z,30.39
2023-05-25T09:02:52.322Z,30.12
2023-05-25T09:05:19.830Z,29.85
2023-05-25T09:07:47.195Z,29.81
2023-05-25T09:10:14.520Z,29.68
2023-05-25T09:12:41.834Z,29.52
2023-05-25T09:15:12.510Z,29.35
2023-05-25T09:17:41.402Z,29.23
2023-05-25T09:20:10.882Z,29.20
2023-05-25T09:22:38.221Z,29.20
2023-05-25T09:25:06.806Z,29.21
2023-05-25T09:27:35.503Z,29.22
2023-05-25T09:30:03.485Z,29.21
2023-05-25T09:32:30.938Z,29.22
2023-05-25T09:35:14.581Z,29.33
2023-05-25T09:37:42.247Z,29.57
2023-05-25T09:40:10.950Z,29.70
2023-05-25T09:42:38.424Z,29.73
2023-05-25T09:45:06.393Z,29.72
2023-05-25T09:47:36.070Z,29.75
2023-05-25T09:50:03.901Z,29.88
2023-05-25T09:52:31.509Z,30.05
2023-05-25T09:54:58.741Z,30.26
2023-05-25T09:57:26.132Z,30.38
2023-05-25T09:59:53.537Z,30.46
2023-05-25T10:02:20.779Z,30.44
2023-05-25T10:04:48.648Z,30.46
2023-05-25T10:07:16.274Z,30.45
2023-05-25T10:09:43.532Z,30.53
2023-05-25T10:12:10.733Z,30.60
2023-05-25T10:14:38.346Z,30.53
2023-05-25T10:17:09.120Z,30.54
2023-05-25T10:19:41.408Z,30.66
2023-05-25T10:22:14.203Z,30.80
2023-05-25T10:24:56.477Z,30.76
2023-05-25T10:30:12.424Z,30.93
2023-05-25T10:32:39.858Z,31.07
2023-05-25T10:35:07.707Z,31.27
2023-05-25T10:37:35.817Z,31.42
2023-05-25T10:40:03.912Z,31.48
2023-05-25T10:42:31.245Z,31.54
2023-05-25T10:44:58.783Z,31.63
2023-05-25T10:47:26.135Z,31.74
2023-05-25T10:49:54.748Z,31.87
2023-05-25T10:52:22.095Z,31.97
2023-05-25T10:54:49.356Z,31.89
2023-05-25T10:57:23.752Z,31.89
2023-05-25T10:59:52.030Z,31.84
2023-05-25T11:02:25.174Z,31.50
2023-05-25T11:05:12.382Z,31.19
2023-05-25T11:08:01.361Z,31.00
2023-05-25T11:10:49.463Z,30.79
2023-05-25T11:13:23.804Z,30.23
2023-05-25T11:16:18.820Z,28.93
2023-05-25T11:19:01.956Z,27.73
2023-05-25T11:21:30.486Z,27.10
2023-05-25T11:24:04.463Z,26.69
2023-05-25T11:26:35.071Z,26.36
2023-05-25T11:29:12.187Z,26.05
2023-05-25T11:31:43.431Z,25.75
2023-05-25T11:34:11.960Z,25.51
2023-05-25T11:36:39.664Z,25.38
2023-05-25T11:39:14.201Z,25.34
2023-05-25T11:41:48.360Z,25.23
2023-05-25T11:44:15.603Z,25.18
2023-05-25T11:46:43.937Z,25.22
2023-05-25T11:49:11.218Z,25.36
2023-05-25T11:51:38.761Z,25.53
2023-05-25T11:54:06.283Z,25.58
2023-05-25T11:56:35.939Z,25.60
2023-05-25T11:59:03.504Z,25.48
2023-05-25T12:01:34.370Z,25.45
2023-05-25T12:04:05.035Z,25.49
2023-05-25T12:06:36.998Z,25.51
2023-05-25T12:09:10.190Z,25.53
2023-05-25T12:11:45.296Z,25.63
2023-05-25T12:14:12.563Z,25.56
2023-05-25T12:16:41.041Z,25.58
2023-05-25T12:19:08.604Z,25.68
2023-05-25T12:21:39.044Z,25.88
2023-05-25T12:24:07.007Z,26.11
2023-05-25T12:26:34.448Z,26.19
2023-05-25T12:29:03.618Z,26.16
2023-05-25T12:31:35.737Z,26.19
2023-05-25T12:34:06.040Z,26.23
2023-05-25T12:36:40.483Z,26.29
2023-05-25T12:39:08.049Z,26.33
2023-05-25T12:41:53.353Z,26.38
2023-05-25T12:44:26.896Z,26.36
2023-05-25T12:46:55.604Z,26.28
2023-05-25T12:49:27.661Z,26.20
2023-05-25T12:51:55.265Z,26.17
2023-05-25T12:54:44.808Z,26.17
2023-05-25T12:57:16.147Z,26.17
2023-05-25T12:59:44.992Z,26.16
2023-05-25T13:02:13.004Z,26.21
2023-05-25T13:04:41.171Z,26.24
2023-05-25T13:07:08.728Z,26.32
2023-05-25T13:09:36.568Z,26.31
2023-05-25T13:12:04.516Z,26.42
2023-05-25T13:14:31.744Z,26.57
2023-05-25T13:16:59.121Z,26.58
2023-05-25T13:19:26.345Z,26.57
2023-05-25T13:21:55.823Z,26.66
2023-05-25T13:24:23.244Z,26.65
2023-05-25T13:26:51.128Z,26.63
2023-05-25T13:29:18.594Z,26.52
2023-05-25T13:31:46.750Z,26.51
2023-05-25T13:34:14.190Z,26.56
2023-05-25T13:36:41.498Z,26.59
2023-05-25T13:39:13.249Z,26.60
2023-05-25T13:41:41.171Z,26.66
2023-05-25T13:44:08.566Z,26.73
2023-05-25T13:46:37.672Z,26.74
2023-05-25T13:49:05.175Z,26.70
2023-05-25T13:51:35.457Z,26.65
2023-05-25T13:54:03.182Z,26.53
2023-05-25T13:56:30.452Z,26.37
2023-05-25T14:00:34.311Z,26.15
2023-05-25T14:03:01.949Z,26.12
2023-05-25T14:05:30.319Z,26.12
2023-05-25T14:08:00.786Z,26.07
2023-05-25T14:10:28.346Z,25.91
2023-05-25T14:12:55.670Z,25.77
2023-05-25T14:15:23.046Z,25.60
2023-05-25T14:17:50.558Z,25.40
2023-05-25T14:20:25.329Z,25.24
2023-05-25T14:22:52.858Z,25.19
2023-05-25T14:25:20.153Z,25.19
2023-05-25T14:27:47.341Z,25.21
2023-05-25T14:30:14.885Z,25.21
2023-05-25T14:32:42.843Z,25.06
2023-05-25T14:35:10.837Z,24.89
2023-05-25T14:37:38.059Z,24.73
2023-05-25T14:40:06.142Z,24.64
2023-05-25T14:42:33.369Z,24.58
2023-05-25T14:45:00.881Z,24.52
2023-05-25T14:47:28.237Z,24.48
2023-05-25T14:49:55.757Z,24.46
2023-05-25T14:52:23.034Z,24.48
2023-05-25T14:54:50.416Z,24.52
2023-05-25T14:57:17.766Z,24.43
2023-05-25T14:59:45.048Z,24.27
2023-05-25T15:02:12.374Z,24.18
2023-05-25T15:04:39.648Z,24.19
2023-05-25T15:07:06.984Z,24.23
2023-05-25T15:09:34.265Z,24.25
2023-05-25T15:12:02.071Z,24.24
2023-05-25T15:14:29.358Z,24.17
2023-05-25T15:16:57.166Z,24.04
2023-05-25T15:19:24.356Z,23.91
2023-05-25T15:21:51.667Z,23.86
2023-05-25T15:24:18.918Z,23.86
2023-05-25T15:26:46.540Z,23.88
2023-05-25T15:29:13.837Z,23.90
2023-05-25T15:31:41.432Z,23.85
2023-05-25T15:34:11.222Z,23.79
2023-05-25T15:36:38.454Z,23.74
2023-05-25T15:39:08.905Z,23.69
2023-05-25T15:41:36.381Z,23.64
2023-05-25T15:44:08.120Z,23.59
2023-05-25T15:46:36.174Z,23.54
2023-05-25T15:49:10.699Z,23.51
2023-05-25T15:51:39.829Z,23.47
2023-05-25T15:54:08.050Z,23.36
2023-05-25T15:56:35.958Z,23.27
2023-05-25T15:59:03.685Z,23.23
2023-05-25T16:01:34.240Z,23.24
2023-05-25T16:04:01.671Z,23.25
2023-05-25T16:06:29.284Z,23.25
2023-05-25T16:08:58.641Z,23.17
2023-05-25T16:11:28.013Z,23.08
2023-05-25T16:13:55.448Z,23.04
2023-05-25T16:16:24.316Z,23.04
2023-05-25T16:18:51.820Z,23.04
2023-05-25T16:21:19.057Z,23.05
2023-05-25T16:23:46.313Z,23.06
2023-05-25T16:26:13.512Z,23.07
2023-05-25T16:28:40.936Z,23.07
2023-05-25T16:31:08.223Z,23.02
2023-05-25T16:33:35.530Z,22.97
2023-05-25T16:36:02.901Z,22.96
2023-05-25T16:38:30.455Z,22.97
2023-05-25T16:40:57.729Z,22.96
2023-05-25T16:43:25.222Z,22.94
2023-05-25T16:45:52.661Z,22.92
2023-05-25T16:48:22.434Z,22.93
2023-05-25T16:50:50.501Z,22.93
2023-05-25T16:53:17.745Z,22.92
2023-05-25T16:55:45.137Z,22.92
2023-05-25T16:58:12.504Z,22.92
2023-05-25T17:00:40.185Z,22.91
2023-05-25T17:03:07.501Z,22.89
2023-05-25T17:05:34.799Z,22.88
2023-05-25T17:08:02.175Z,22.86
2023-05-25T17:10:29.367Z,22.81
2023-05-25T17:12:56.725Z,22.76
2023-05-25T17:15:24.044Z,22.71
2023-05-25T17:17:51.472Z,22.67
2023-05-25T17:20:18.732Z,22.62
2023-05-25T17:22:46.640Z,22.57
2023-05-25T17:25:13.866Z,22.51
2023-05-25T17:27:41.134Z,22.44
2023-05-25T17:30:09.255Z,22.35
2023-05-25T17:32:36.595Z,22.26
2023-05-25T17:35:04.216Z,22.17
2023-05-25T17:37:32.293Z,22.08
2023-05-25T17:39:59.535Z,21.99
2023-05-25T17:42:26.812Z,21.89
2023-05-25T17:44:54.049Z,21.80
2023-05-25T17:47:21.303Z,21.72
2023-05-25T17:49:48.526Z,21.63
2023-05-25T17:52:15.879Z,21.55
2023-05-25T17:54:43.086Z,21.48
2023-05-25T17:57:10.307Z,21.40
2023-05-25T17:59:37.598Z,21.32
2023-05-25T18:02:05.151Z,21.25
2023-05-25T18:04:32.404Z,21.17
2023-05-25T18:06:59.664Z,21.10
2023-05-25T18:09:26.881Z,21.01
2023-05-25T18:11:55.360Z,20.94
2023-05-25T18:14:22.693Z,20.87
2023-05-25T18:16:50.058Z,20.79
2023-05-25T18:19:20.187Z,20.69
2023-05-25T18:21:47.552Z,20.60
2023-05-25T18:24:14.783Z,20.51
2023-05-25T18:26:42.317Z,20.43
2023-05-25T18:29:09.741Z,20.33
2023-05-25T18:31:37.081Z,20.23
2023-05-25T18:34:06.776Z,20.14
2023-05-25T18:36:34.091Z,20.06
2023-05-25T18:39:01.290Z,19.99
2023-05-25T18:41:28.559Z,19.92
2023-05-25T18:43:55.863Z,19.87
2023-05-25T18:46:24.486Z,19.81
2023-05-25T18:48:51.857Z,19.77
2023-05-25T18:51:22.999Z,19.69
2023-05-25T18:53:50.245Z,19.62
2023-05-25T18:56:17.445Z,19.55
2023-05-25T18:58:44.972Z,19.49
2023-05-25T19:01:12.234Z,19.43
2023-05-25T19:03:39.522Z,19.37
2023-05-25T19:06:07.150Z,19.29
2023-05-25T19:08:34.372Z,19.22
2023-05-25T19:11:01.589Z,19.15
2023-05-25T19:13:29.335Z,19.08
2023-05-25T19:15:56.794Z,19.02
2023-05-25T19:18:24.083Z,18.96
2023-05-25T19:20:51.472Z,18.91
2023-05-25T19:23:19.494Z,18.86
2023-05-25T19:25:47.072Z,18.82
2023-05-25T19:28:14.652Z,18.77
2023-05-25T19:30:41.915Z,18.74
2023-05-25T19:33:09.324Z,18.69
2023-05-25T19:35:37.207Z,18.64
2023-05-25T19:38:04.557Z,18.62
2023-05-25T19:40:32.203Z,18.59
2023-05-25T19:42:59.412Z,18.55
2023-05-25T19:45:26.697Z,18.53
2023-05-25T19:47:54.533Z,18.50
2023-05-25T19:50:21.835Z,18.47
2023-05-25T19:52:49.056Z,18.43
2023-05-25T19:55:16.243Z,18.41
2023-05-25T19:57:43.505Z,18.39
2023-05-25T20:00:24.944Z,18.35
2023-05-25T20:02:53.982Z,18.31
2023-05-25T20:05:21.338Z,18.28
2023-05-25T20:07:50.765Z,18.25
2023-05-25T20:10:18.133Z,18.23
2023-05-25T20:12:45.441Z,18.19
2023-05-25T20:15:12.764Z,18.16
2023-05-25T20:17:40.128Z,18.12
2023-05-25T20:20:07.939Z,18.09
2023-05-25T20:22:35.456Z,18.03
2023-05-25T20:25:02.696Z,17.99
2023-05-25T20:27:29.941Z,17.96
2023-05-25T20:29:57.468Z,17.93
2023-05-25T20:32:24.820Z,17.90
2023-05-25T20:34:52.093Z,17.87
2023-05-25T20:37:19.381Z,17.82
2023-05-25T20:39:46.644Z,17.78
2023-05-25T20:42:14.128Z,17.75
2023-05-25T20:44:41.385Z,17.72
2023-05-25T20:47:08.664Z,17.69
2023-05-25T20:49:36.001Z,17.67
2023-05-25T20:52:03.417Z,17.65
2023-05-25T20:54:30.763Z,17.64
2023-05-25T20:56:58.074Z,17.63
2023-05-25T20:59:25.441Z,17.63
2023-05-25T21:01:52.754Z,17.63
2023-05-25T21:04:20.021Z,17.62
2023-05-25T21:06:47.270Z,17.61
2023-05-25T21:09:14.573Z,17.61
2023-05-25T21:11:41.800Z,17.61
2023-05-25T21:14:09.045Z,17.60
2023-05-25T21:16:36.391Z,17.62
2023-05-25T21:19:03.665Z,17.62
2023-05-25T21:21:33.916Z,17.62
2023-05-25T21:24:01.628Z,17.62
2023-05-25T21:26:29.820Z,17.62
2023-05-25T21:28:57.485Z,17.63
2023-05-25T21:31:25.012Z,17.64
2023-05-25T21:33:53.222Z,17.63
2023-05-25T21:36:20.810Z,17.64
2023-05-25T21:38:48.110Z,17.64
2023-05-25T21:41:15.497Z,17.65
2023-05-25T21:43:42.745Z,17.66
2023-05-25T21:46:10.069Z,17.66
2023-05-25T21:48:37.521Z,17.65
2023-05-25T21:51:05.536Z,17.66
2023-05-25T21:53:32.955Z,17.66
2023-05-25T21:56:00.240Z,17.66
2023-05-25T21:58:27.531Z,17.63
2023-05-25T22:00:54.742Z,17.61
2023-05-25T22:03:22.228Z,17.59
2023-05-25T22:05:49.457Z,17.56
2023-05-25T22:08:16.722Z,17.55
2023-05-25T22:10:43.932Z,17.53
2023-05-25T22:13:11.148Z,17.52
2023-05-25T22:15:38.456Z,17.49
2023-05-25T22:18:06.329Z,17.48
2023-05-25T22:20:33.726Z,17.46
2023-05-25T22:23:01.061Z,17.44
2023-05-25T22:25:28.299Z,17.40
2023-05-25T22:27:56.042Z,17.37
2023-05-25T22:30:23.351Z,17.34
2023-05-25T22:32:50.694Z,17.31
2023-05-25T22:35:17.919Z,17.27
2023-05-25T22:37:45.270Z,17.23
2023-05-25T22:40:12.932Z,17.18
2023-05-25T22:42:40.535Z,17.14
2023-05-25T22:45:08.376Z,17.09
2023-05-25T22:47:35.916Z,17.02
2023-05-25T22:50:03.194Z,16.95
2023-05-25T22:52:30.466Z,16.89
2023-05-25T22:54:57.721Z,16.84
2023-05-25T22:57:25.059Z,16.77
2023-05-25T22:59:52.308Z,16.72
2023-05-25T23:02:19.551Z,16.65
2023-05-25T23:04:46.948Z,16.58
2023-05-25T23:07:14.233Z,16.48
2023-05-25T23:09:41.438Z,16.39
2023-05-25T23:12:08.719Z,16.30
2023-05-25T23:14:36.485Z,16.22
2023-05-25T23:17:03.804Z,16.13
2023-05-25T23:19:31.034Z,16.05
2023-05-25T23:21:58.714Z,15.96
2023-05-25T23:24:25.934Z,15.88
2023-05-25T23:26:53.264Z,15.82
2023-05-25T23:29:20.473Z,15.74
2023-05-25T23:31:47.733Z,15.68
2023-05-25T23:34:15.601Z,15.64
2023-05-25T23:36:42.894Z,15.63
2023-05-25T23:39:10.262Z,15.61
2023-05-25T23:41:37.566Z,15.60
2023-05-25T23:44:04.844Z,15.58
2023-05-25T23:46:32.180Z,15.56
2023-05-25T23:48:59.577Z,15.54
2023-05-25T23:51:30.246Z,15.52
2023-05-25T23:53:59.170Z,15.49
2023-05-25T23:56:28.396Z,15.45
2023-05-25T23:58:57.396Z,15.41
